createdAt,value
2023-03-19T00:02:16.988Z,84.22
2023-03-19T00:04:39.298Z,83.92
2023-03-19T00:07:09.189Z,83.63
2023-03-19T00:09:39.400Z,83.72
2023-03-19T00:12:09.680Z,83.72
2023-03-19T00:14:40.558Z,83.03
2023-03-19T00:17:11.126Z,83.03
2023-03-19T00:19:41.173Z,83.83
2023-03-19T00:22:10.953Z,83.83
2023-03-19T00:24:41.102Z,83.62
2023-03-19T00:27:10.992Z,83.62
2023-03-19T00:29:41.280Z,83.28
2023-03-19T00:32:14.564Z,83.15
2023-03-19T00:34:44.854Z,84.30
2023-03-19T00:37:16.404Z,84.23
2023-03-19T00:39:46.449Z,83.99
2023-03-19T00:42:16.780Z,84.33
2023-03-19T00:44:46.531Z,84.53
2023-03-19T00:47:16.353Z,85.51
2023-03-19T00:49:46.141Z,84.65
2023-03-19T00:52:16.229Z,84.28
2023-03-19T00:54:46.719Z,84.35
2023-03-19T00:57:16.788Z,85.32
2023-03-19T00:59:46.912Z,84.95
2023-03-19T01:02:17.199Z,84.95
2023-03-19T01:04:49.517Z,85.38
2023-03-19T01:07:19.704Z,86.04
2023-03-19T01:09:49.913Z,86.30
2023-03-19T01:12:19.818Z,86.30
2023-03-19T01:14:49.621Z,85.29
2023-03-19T01:17:19.643Z,85.88
2023-03-19T01:19:50.918Z,86.13
2023-03-19T01:22:20.694Z,85.62
2023-03-19T01:24:52.938Z,85.14
2023-03-19T01:27:23.039Z,85.28
2023-03-19T01:29:53.576Z,86.62
2023-03-19T01:32:25.156Z,86.65
2023-03-19T01:34:57.174Z,86.40
2023-03-19T01:37:26.932Z,86.40
2023-03-19T01:39:56.868Z,87.95
2023-03-19T01:42:26.502Z,87.38
2023-03-19T01:45:03.019Z,87.10
2023-03-19T01:47:44.110Z,87.10
2023-03-19T01:50:30.094Z,87.79
2023-03-19T01:53:04.588Z,87.52
2023-03-19T01:55:57.177Z,87.01
2023-03-19T01:58:38.210Z,88.64
2023-03-19T02:01:10.544Z,87.99
2023-03-19T02:03:42.664Z,88.09
2023-03-19T02:06:15.412Z,87.22
2023-03-19T02:08:45.577Z,87.51
2023-03-19T02:11:15.754Z,87.27
2023-03-19T02:13:47.013Z,86.99
2023-03-19T02:16:17.369Z,86.39
2023-03-19T02:18:48.051Z,86.39
2023-03-19T02:21:20.471Z,86.35
2023-03-19T02:24:02.526Z,85.84
2023-03-19T02:26:37.932Z,86.27
2023-03-19T02:29:07.772Z,86.18
2023-03-19T02:31:38.226Z,86.69
2023-03-19T02:34:22.839Z,87.14
2023-03-19T02:37:02.413Z,86.95
2023-03-19T02:39:47.188Z,86.91
2023-03-19T02:42:19.515Z,86.80
2023-03-19T02:44:49.793Z,86.11
2023-03-19T02:47:19.782Z,86.29
2023-03-19T02:49:49.867Z,87.34
2023-03-19T02:52:20.026Z,88.21
2023-03-19T02:54:50.116Z,87.65
2023-03-19T02:57:20.767Z,87.54
2023-03-19T02:59:50.813Z,87.54
2023-03-19T03:02:21.851Z,88.43
2023-03-19T03:04:52.161Z,89.07
2023-03-19T03:07:22.241Z,89.45
2023-03-19T03:09:52.530Z,88.49
2023-03-19T03:12:22.564Z,89.62
2023-03-19T03:14:52.631Z,89.44
2023-03-19T03:17:22.119Z,89.06
2023-03-19T03:19:52.169Z,88.37
2023-03-19T03:22:22.023Z,89.57
2023-03-19T03:24:51.797Z,90.33
2023-03-19T03:27:21.953Z,90.33
2023-03-19T03:29:52.145Z,89.86
2023-03-19T03:32:22.382Z,90.88
2023-03-19T03:34:52.483Z,90.96
2023-03-19T03:37:22.661Z,89.08
2023-03-19T03:39:53.376Z,89.96
2023-03-19T03:42:23.194Z,89.24
2023-03-19T03:44:53.627Z,89.24
2023-03-19T03:47:23.452Z,88.60
2023-03-19T03:49:53.832Z,88.84
2023-03-19T03:52:23.922Z,88.32
2023-03-19T03:54:54.048Z,88.02
2023-03-19T03:57:23.818Z,88.12
2023-03-19T03:59:54.277Z,87.66
2023-03-19T04:02:25.121Z,87.67
2023-03-19T04:04:56.094Z,87.42
2023-03-19T04:07:25.841Z,86.60
2023-03-19T04:09:59.710Z,87.78
2023-03-19T04:12:29.766Z,87.13
2023-03-19T04:14:59.600Z,88.33
2023-03-19T04:17:29.643Z,89.00
2023-03-19T04:19:59.408Z,89.11
2023-03-19T04:22:29.360Z,89.63
2023-03-19T04:24:59.151Z,88.85
2023-03-19T04:27:29.697Z,88.47
2023-03-19T04:29:59.840Z,88.72
2023-03-19T04:32:30.455Z,87.75
2023-03-19T04:35:00.693Z,87.86
2023-03-19T04:37:31.331Z,88.01
2023-03-19T04:40:01.480Z,88.10
2023-03-19T04:42:33.130Z,88.12
2023-03-19T04:45:08.661Z,87.23
2023-03-19T04:47:39.000Z,87.70
2023-03-19T04:50:10.388Z,87.41
2023-03-19T04:52:40.314Z,88.04
2023-03-19T04:55:10.299Z,88.04
2023-03-19T04:57:58.128Z,87.64
2023-03-19T05:00:30.670Z,87.66
2023-03-19T05:03:00.884Z,87.44
2023-03-19T05:05:32.489Z,88.21
2023-03-19T05:08:03.507Z,88.69
2023-03-19T05:10:34.609Z,88.69
2023-03-19T05:13:05.463Z,87.65
2023-03-19T05:15:35.785Z,88.67
2023-03-19T05:18:08.642Z,89.05
2023-03-19T05:20:46.459Z,88.62
2023-03-19T05:23:21.250Z,89.48
2023-03-19T05:26:08.501Z,89.33
2023-03-19T05:28:55.884Z,90.18
2023-03-19T05:31:27.923Z,91.17
2023-03-19T05:33:58.317Z,92.37
2023-03-19T05:36:29.095Z,90.79
2023-03-19T05:39:06.456Z,90.79
2023-03-19T05:41:37.988Z,90.40
2023-03-19T05:44:09.086Z,90.16
2023-03-19T05:46:41.608Z,89.92
2023-03-19T05:49:12.251Z,89.99
2023-03-19T05:51:42.143Z,90.01
2023-03-19T05:54:14.369Z,90.99
2023-03-19T05:56:45.909Z,90.99
2023-03-19T05:59:19.852Z,90.70
2023-03-19T06:01:51.551Z,91.37
2023-03-19T06:04:21.438Z,91.05
2023-03-19T06:06:51.459Z,90.58
2023-03-19T06:09:21.624Z,91.19
2023-03-19T06:11:53.180Z,90.57
2023-03-19T06:14:30.179Z,91.55
2023-03-19T06:17:01.674Z,90.31
2023-03-19T06:19:31.532Z,91.40
2023-03-19T06:22:01.652Z,91.40
2023-03-19T06:24:31.309Z,90.68
2023-03-19T06:27:01.791Z,90.00
2023-03-19T06:29:31.823Z,90.14
2023-03-19T06:32:03.676Z,90.61
2023-03-19T06:34:41.598Z,90.03
2023-03-19T06:37:11.889Z,90.50
2023-03-19T06:39:41.761Z,89.00
2023-03-19T06:42:12.155Z,89.52
2023-03-19T06:44:42.009Z,89.02
2023-03-19T06:47:12.378Z,88.97
2023-03-19T06:49:42.854Z,88.38
2023-03-19T06:52:13.810Z,90.23
2023-03-19T06:54:43.280Z,89.75
2023-03-19T06:57:13.140Z,89.79
2023-03-19T06:59:42.954Z,89.58
2023-03-19T07:02:14.368Z,89.15
2023-03-19T07:04:44.155Z,89.03
2023-03-19T07:07:14.043Z,90.13
2023-03-19T07:09:43.806Z,90.20
2023-03-19T07:12:15.704Z,90.56
2023-03-19T07:14:45.864Z,91.37
2023-03-19T07:17:15.994Z,90.74
2023-03-19T07:19:46.074Z,90.91
2023-03-19T07:22:16.042Z,90.50
2023-03-19T07:24:46.109Z,90.50
2023-03-19T07:27:16.438Z,90.24
2023-03-19T07:29:45.951Z,89.63
2023-03-19T07:32:16.541Z,90.12
2023-03-19T07:34:46.344Z,90.64
2023-03-19T07:37:16.586Z,89.99
2023-03-19T07:39:46.593Z,88.61
2023-03-19T07:42:17.210Z,88.36
2023-03-19T07:44:47.013Z,88.67
2023-03-19T07:47:28.563Z,89.94
2023-03-19T07:49:48.961Z,89.30
2023-03-19T07:52:19.152Z,88.33
2023-03-19T07:54:50.069Z,89.01
2023-03-19T07:57:20.895Z,89.46
2023-03-19T07:59:51.002Z,89.34
2023-03-19T08:02:23.048Z,89.34
2023-03-19T08:04:52.399Z,88.11
2023-03-19T08:07:22.422Z,87.54
2023-03-19T08:09:52.331Z,87.78
2023-03-19T08:12:21.767Z,86.99
2023-03-19T08:14:51.711Z,86.53
2023-03-19T08:17:22.008Z,85.61
2023-03-19T08:19:51.796Z,84.71
2023-03-19T08:22:21.416Z,85.09
2023-03-19T08:24:51.190Z,84.86
2023-03-19T08:27:21.347Z,84.30
2023-03-19T08:29:51.176Z,82.88
2023-03-19T08:32:20.739Z,80.71
2023-03-19T08:34:50.578Z,79.80
2023-03-19T08:37:20.344Z,79.41
2023-03-19T08:39:52.315Z,76.86
2023-03-19T08:42:23.026Z,76.30
2023-03-19T08:44:53.310Z,77.61
2023-03-19T08:47:25.048Z,77.15
2023-03-19T08:49:54.904Z,77.37
2023-03-19T08:52:25.489Z,76.46
2023-03-19T08:54:55.270Z,77.12
2023-03-19T08:57:25.112Z,74.46
2023-03-19T08:59:55.097Z,74.27
2023-03-19T09:02:24.977Z,72.07
2023-03-19T09:04:55.379Z,74.21
2023-03-19T09:07:25.193Z,73.19
2023-03-19T09:09:54.963Z,74.20
2023-03-19T09:12:24.436Z,71.38
2023-03-19T09:14:54.258Z,70.80
2023-03-19T09:17:24.045Z,70.97
2023-03-19T09:19:53.816Z,69.98
2023-03-19T09:22:23.298Z,71.81
2023-03-19T09:24:53.226Z,70.07
2023-03-19T09:27:23.464Z,69.87
2023-03-19T09:29:53.266Z,67.89
2023-03-19T09:32:23.052Z,69.02
2023-03-19T09:34:53.185Z,70.53
2023-03-19T09:37:23.022Z,68.89
2023-03-19T09:39:52.862Z,68.89
2023-03-19T09:42:44.736Z,67.81
2023-03-19T09:45:18.057Z,66.69
2023-03-19T09:47:51.469Z,64.56
2023-03-19T09:50:24.291Z,66.15
2023-03-19T09:53:18.254Z,60.99
2023-03-19T09:55:51.411Z,58.96
2023-03-19T09:58:24.087Z,58.96
2023-03-19T10:00:55.408Z,62.52
2023-03-19T10:03:50.403Z,62.11
2023-03-19T10:06:33.347Z,62.00
2023-03-19T10:09:22.451Z,62.52
2023-03-19T10:12:07.347Z,62.32
2023-03-19T10:14:45.896Z,62.70
2023-03-19T10:17:27.386Z,64.26
2023-03-19T10:20:09.491Z,63.66
2023-03-19T10:22:44.755Z,63.45
2023-03-19T10:25:23.658Z,64.23
2023-03-19T10:27:56.143Z,65.29
2023-03-19T10:30:26.654Z,65.06
2023-03-19T10:33:05.022Z,65.10
2023-03-19T10:35:45.927Z,63.75
2023-03-19T10:38:24.879Z,62.66
2023-03-19T10:41:30.399Z,62.81
2023-03-19T10:44:03.400Z,62.00
2023-03-19T10:46:41.152Z,62.04
2023-03-19T10:49:13.508Z,61.88
2023-03-19T10:51:47.543Z,62.02
2023-03-19T10:54:23.007Z,62.70
2023-03-19T10:56:54.887Z,63.16
2023-03-19T10:59:33.386Z,62.82
2023-03-19T11:02:31.036Z,61.96
2023-03-19T11:05:18.294Z,61.96
2023-03-19T11:07:53.291Z,59.96
2023-03-19T11:10:25.275Z,59.39
2023-03-19T11:13:03.624Z,58.91
2023-03-19T11:15:38.827Z,57.76
2023-03-19T11:18:19.818Z,58.06
2023-03-19T11:21:02.251Z,59.13
2023-03-19T11:23:33.933Z,59.97
2023-03-19T11:26:05.117Z,59.32
2023-03-19T11:28:37.767Z,59.03
2023-03-19T11:31:29.004Z,57.89
2023-03-19T11:34:27.249Z,59.42
2023-03-19T11:37:05.725Z,59.94
2023-03-19T11:39:38.577Z,60.26
2023-03-19T11:42:40.991Z,61.13
2023-03-19T11:45:30.714Z,62.44
2023-03-19T11:48:31.881Z,63.74
2023-03-19T11:51:07.211Z,64.30
2023-03-19T11:53:51.852Z,65.20
2023-03-19T11:56:39.588Z,65.29
2023-03-19T11:59:37.849Z,66.28
2023-03-19T12:02:28.127Z,65.09
2023-03-19T12:05:17.531Z,65.74
2023-03-19T12:07:52.677Z,66.05
2023-03-19T12:10:50.905Z,65.67
2023-03-19T12:13:32.389Z,65.21
2023-03-19T12:16:14.023Z,64.58
2023-03-19T12:19:10.926Z,65.28
2023-03-19T12:21:46.500Z,65.36
2023-03-19T12:24:37.951Z,63.55
2023-03-19T12:27:42.834Z,63.55
2023-03-19T12:30:21.626Z,64.21
2023-03-19T12:33:11.210Z,62.25
2023-03-19T12:35:43.293Z,60.15
2023-03-19T12:38:34.229Z,59.52
2023-03-19T12:41:11.064Z,59.96
2023-03-19T12:43:43.967Z,58.95
2023-03-19T12:46:17.595Z,58.75
2023-03-19T12:48:53.574Z,60.27
2023-03-19T12:51:26.813Z,60.98
2023-03-19T12:54:07.961Z,60.26
2023-03-19T12:56:46.311Z,59.25
2023-03-19T12:59:20.098Z,59.95
2023-03-19T13:01:52.969Z,60.16
2023-03-19T13:04:28.686Z,57.16
2023-03-19T13:07:01.625Z,57.69
2023-03-19T13:09:46.592Z,58.65
2023-03-19T13:12:27.652Z,59.13
2023-03-19T13:15:18.558Z,57.66
2023-03-19T13:18:03.568Z,57.66
2023-03-19T13:20:41.917Z,57.15
2023-03-19T13:23:14.891Z,57.03
2023-03-19T13:25:50.778Z,57.04
2023-03-19T13:28:24.374Z,57.14
2023-03-19T13:31:03.055Z,57.19
2023-03-19T13:33:35.229Z,56.53
2023-03-19T13:36:09.006Z,56.53
2023-03-19T13:38:47.176Z,56.16
2023-03-19T13:41:39.639Z,57.48
2023-03-19T13:44:27.610Z,59.03
2023-03-19T13:49:36.626Z,59.79
2023-03-19T13:52:16.910Z,57.65
2023-03-19T13:54:47.557Z,57.65
2023-03-19T13:57:20.568Z,58.86
2023-03-19T13:59:51.833Z,57.92
2023-03-19T14:02:27.320Z,56.70
2023-03-19T14:05:12.221Z,57.35
2023-03-19T14:07:44.916Z,55.65
2023-03-19T14:10:18.352Z,57.30
2023-03-19T14:12:50.222Z,57.17
2023-03-19T14:15:27.859Z,56.70
2023-03-19T14:18:00.534Z,56.70
2023-03-19T14:20:40.747Z,56.68
2023-03-19T14:23:13.630Z,56.28
2023-03-19T14:26:07.841Z,57.04
2023-03-19T14:28:59.395Z,56.83
2023-03-19T14:31:44.329Z,58.15
2023-03-19T14:34:16.855Z,58.52
2023-03-19T14:36:58.230Z,58.79
2023-03-19T14:39:42.885Z,58.00
2023-03-19T14:42:34.115Z,58.00
2023-03-19T14:45:15.913Z,56.78
2023-03-19T14:48:03.126Z,56.09
2023-03-19T14:50:41.093Z,56.08
2023-03-19T14:53:18.769Z,55.64
2023-03-19T14:55:53.761Z,55.64
2023-03-19T14:58:24.301Z,56.65
2023-03-19T15:00:55.888Z,56.86
2023-03-19T15:03:34.265Z,57.63
2023-03-19T15:08:49.590Z,59.40
2023-03-19T15:11:37.311Z,61.05
2023-03-19T15:14:40.762Z,59.99
2023-03-19T15:17:16.453Z,57.99
2023-03-19T15:19:46.824Z,56.78
2023-03-19T15:22:19.142Z,56.74
2023-03-19T15:24:49.875Z,57.72
2023-03-19T15:27:25.576Z,57.86
2023-03-19T15:30:03.986Z,57.90
2023-03-19T15:33:07.773Z,57.96
2023-03-19T15:35:10.415Z,57.85
2023-03-19T15:37:43.303Z,59.42
2023-03-19T15:40:16.243Z,59.10
2023-03-19T15:42:49.055Z,58.72
2023-03-19T15:45:22.174Z,58.70
2023-03-19T15:47:55.150Z,58.47
2023-03-19T15:50:28.209Z,58.73
2023-03-19T15:53:01.338Z,59.44
2023-03-19T15:55:31.345Z,60.72
2023-03-19T15:58:06.981Z,61.50
2023-03-19T16:00:42.202Z,62.20
2023-03-19T16:03:17.969Z,61.41
2023-03-19T16:05:52.747Z,60.76
2023-03-19T16:08:27.851Z,60.13
2023-03-19T16:11:16.571Z,59.81
2023-03-19T16:13:55.390Z,59.60
2023-03-19T16:16:26.246Z,59.72
2023-03-19T16:18:58.020Z,59.93
2023-03-19T16:21:44.512Z,59.93
2023-03-19T16:24:36.954Z,60.48
2023-03-19T16:27:09.809Z,60.64
2023-03-19T16:29:45.624Z,59.78
2023-03-19T16:32:18.172Z,59.78
2023-03-19T16:34:53.333Z,58.99
2023-03-19T16:37:35.002Z,60.11
2023-03-19T16:40:21.602Z,59.94
2023-03-19T16:42:54.056Z,59.52
2023-03-19T16:45:29.694Z,60.73
2023-03-19T16:48:03.601Z,62.22
2023-03-19T16:50:41.327Z,64.73
2023-03-19T16:53:29.192Z,65.32
2023-03-19T16:56:03.311Z,66.29
2023-03-19T16:58:37.855Z,66.69
2023-03-19T17:01:12.916Z,66.46
2023-03-19T17:03:43.145Z,66.78
2023-03-19T17:06:15.771Z,67.02
2023-03-19T17:08:46.060Z,67.52
2023-03-19T17:11:18.842Z,67.22
2023-03-19T17:13:48.673Z,67.52
2023-03-19T17:16:18.733Z,67.69
2023-03-19T17:18:49.326Z,68.08
2023-03-19T17:21:25.083Z,68.73
2023-03-19T17:23:55.949Z,68.49
2023-03-19T17:26:27.815Z,68.62
2023-03-19T17:28:58.331Z,68.89
2023-03-19T17:31:33.817Z,69.79
2023-03-19T17:34:09.397Z,69.69
2023-03-19T17:36:39.193Z,68.92
2023-03-19T17:39:10.889Z,69.41
2023-03-19T17:41:41.397Z,69.29
2023-03-19T17:44:11.291Z,69.62
2023-03-19T17:46:49.941Z,70.94
2023-03-19T17:49:27.237Z,70.26
2023-03-19T17:51:57.992Z,70.95
2023-03-19T17:54:27.988Z,71.64
2023-03-19T17:56:57.763Z,72.67
2023-03-19T17:59:27.555Z,72.95
2023-03-19T18:01:57.309Z,73.83
2023-03-19T18:04:27.022Z,74.12
2023-03-19T18:06:57.543Z,74.27
2023-03-19T18:09:28.693Z,74.28
2023-03-19T18:11:58.556Z,74.96
2023-03-19T18:14:28.140Z,75.49
2023-03-19T18:16:58.057Z,74.91
2023-03-19T18:19:33.839Z,75.78
2023-03-19T18:22:05.124Z,76.30
2023-03-19T18:24:34.900Z,76.17
2023-03-19T18:27:04.729Z,76.59
2023-03-19T18:29:34.269Z,77.82
2023-03-19T18:32:15.567Z,77.70
2023-03-19T18:34:45.470Z,77.11
2023-03-19T18:37:19.552Z,77.91
2023-03-19T18:39:50.021Z,77.66
2023-03-19T18:42:19.495Z,78.77
2023-03-19T18:44:49.351Z,78.26
2023-03-19T18:47:19.160Z,78.20
2023-03-19T18:49:49.298Z,79.24
2023-03-19T18:52:19.745Z,79.78
2023-03-19T18:54:49.610Z,79.26
2023-03-19T18:57:19.383Z,78.87
2023-03-19T18:59:49.214Z,78.40
2023-03-19T19:02:25.147Z,79.11
2023-03-19T19:04:54.888Z,78.78
2023-03-19T19:07:24.992Z,79.01
2023-03-19T19:09:54.767Z,79.50
2023-03-19T19:12:26.031Z,80.15
2023-03-19T19:14:58.718Z,80.59
2023-03-19T19:17:29.587Z,80.43
2023-03-19T19:19:59.396Z,80.83
2023-03-19T19:22:29.781Z,80.60
2023-03-19T19:24:59.647Z,79.85
2023-03-19T19:27:30.142Z,81.15
2023-03-19T19:30:01.353Z,81.21
2023-03-19T19:32:32.243Z,81.21
2023-03-19T19:35:02.149Z,79.90
2023-03-19T19:37:31.989Z,79.94
2023-03-19T19:40:01.785Z,79.54
2023-03-19T19:42:31.600Z,79.24
2023-03-19T19:45:03.427Z,79.14
2023-03-19T19:47:35.680Z,79.66
2023-03-19T19:50:06.618Z,79.66
2023-03-19T19:52:36.690Z,81.74
2023-03-19T19:55:08.423Z,81.01
2023-03-19T19:57:40.874Z,80.40
2023-03-19T20:00:18.546Z,79.94
2023-03-19T20:02:47.433Z,80.37
2023-03-19T20:05:23.176Z,79.88
2023-03-19T20:07:55.043Z,79.93
2023-03-19T20:10:27.940Z,81.76
2023-03-19T20:13:02.075Z,81.26
2023-03-19T20:15:36.852Z,82.26
2023-03-19T20:18:10.751Z,81.70
2023-03-19T20:20:40.563Z,81.26
2023-03-19T20:23:12.038Z,81.07
2023-03-19T20:25:42.118Z,80.64
2023-03-19T20:28:15.169Z,80.64
2023-03-19T20:30:46.027Z,81.87
2023-03-19T20:33:17.504Z,81.33
2023-03-19T20:35:48.190Z,80.54
2023-03-19T20:38:18.209Z,80.86
2023-03-19T20:40:56.806Z,79.53
2023-03-19T20:43:32.349Z,81.10
2023-03-19T20:46:04.782Z,80.62
2023-03-19T20:48:35.682Z,81.22
2023-03-19T20:51:06.022Z,80.96
2023-03-19T20:53:35.765Z,81.45
2023-03-19T20:56:10.326Z,81.03
2023-03-19T20:58:40.300Z,81.39
2023-03-19T21:01:11.730Z,80.95
2023-03-19T21:03:41.913Z,80.60
2023-03-19T21:06:18.595Z,81.21
2023-03-19T21:08:51.054Z,81.19
2023-03-19T21:11:23.723Z,81.37
2023-03-19T21:13:54.688Z,81.74
2023-03-19T21:16:29.696Z,83.22
2023-03-19T21:19:00.054Z,82.37
2023-03-19T21:21:33.300Z,82.39
2023-03-19T21:24:08.766Z,82.12
2023-03-19T21:26:40.287Z,83.23
2023-03-19T21:29:13.110Z,82.69
2023-03-19T21:31:43.231Z,83.25
2023-03-19T21:34:15.249Z,83.97
2023-03-19T21:36:45.677Z,84.54
2023-03-19T21:39:15.247Z,84.54
2023-03-19T21:41:46.943Z,85.17
2023-03-19T21:44:20.902Z,85.21
2023-03-19T21:46:51.400Z,85.26
2023-03-19T21:49:21.835Z,85.34
2023-03-19T21:51:51.572Z,85.34
2023-03-19T21:54:21.157Z,85.55
2023-03-19T21:56:51.444Z,84.57
2023-03-19T21:59:24.609Z,84.75
2023-03-19T22:01:54.392Z,85.86
2023-03-19T22:04:24.267Z,85.09
2023-03-19T22:06:54.386Z,85.92
2023-03-19T22:09:24.201Z,86.57
2023-03-19T22:11:53.998Z,85.88
2023-03-19T22:14:28.446Z,84.51
2023-03-19T22:16:58.548Z,84.49
2023-03-19T22:19:29.225Z,84.67
2023-03-19T22:21:58.934Z,83.92
2023-03-19T22:24:28.842Z,83.92
2023-03-19T22:26:59.234Z,84.31
2023-03-19T22:29:29.404Z,85.83
2023-03-19T22:31:59.757Z,86.57
2023-03-19T22:34:29.778Z,86.56
2023-03-19T22:37:00.655Z,87.62
2023-03-19T22:39:30.443Z,86.65
2023-03-19T22:42:00.374Z,87.58
2023-03-19T22:44:32.114Z,87.29
2023-03-19T22:47:03.358Z,86.97
2023-03-19T22:49:33.390Z,87.53
2023-03-19T22:52:03.211Z,87.15
2023-03-19T22:54:32.960Z,86.45
2023-03-19T22:57:02.742Z,85.86
2023-03-19T22:59:32.661Z,85.36
2023-03-19T23:02:02.590Z,86.97
2023-03-19T23:04:33.645Z,86.19
2023-03-19T23:07:03.434Z,85.51
2023-03-19T23:09:38.876Z,85.01
2023-03-19T23:12:10.292Z,84.29
2023-03-19T23:14:40.060Z,85.21
2023-03-19T23:17:13.776Z,85.59
2023-03-19T23:19:43.635Z,85.26
2023-03-19T23:22:16.821Z,86.92
2023-03-19T23:24:46.755Z,85.63
2023-03-19T23:27:25.946Z,85.37
2023-03-19T23:29:57.401Z,84.15
2023-03-19T23:32:27.084Z,84.15
2023-03-19T23:35:01.444Z,84.29
2023-03-19T23:37:28.809Z,85.17
2023-03-19T23:39:58.851Z,83.25
2023-03-19T23:42:31.347Z,84.35
2023-03-19T23:45:05.008Z,84.35
2023-03-19T23:47:36.323Z,84.62
2023-03-19T23:50:10.045Z,85.07
2023-03-19T23:52:39.913Z,86.52
2023-03-19T23:55:10.460Z,84.78
2023-03-19T23:57:40.602Z,84.91
